Jackson Hill, Indiana
Current Conditions -  °F | °C
As of 12:07 PM on Friday 31 Oct 2014 (Local Time) from KHUF Reporting Station
Overcast Overcast  
Wind Chill: 30°   Ceiling: 5500
Heat Index: 40°   Visibility: 10mi
Dew Point: 30°   Wind: 21mph
Humidity: 68%   Direction: 330°NNW
Pressure: 30.1"   Gusts: 31mph
Location:  39.2094°N, 87.3438°W
Report Text: KHUF 311607Z 33018G27KT 10SM SCT028 BKN055 OVC070 04/M01 A3010 RMK AO2 PK WND 33027/1559 RAB1557E07 P0000 T00441011
Loading
Personal Weather Stations






























Interactive Weather Map
Tropical Storm Tracking
New forecast layout! Learn more

10-Day Weather Forecast

Advertisements
Track Severe Weather on mobile